Airport View

Enter AWOS ICAO identifier for current METAR.

ex. KFNL

KFFL 200400Z AUTO 36005KT 10SM FEW027 SCT045 OVC055 05/02 A3020 RMK AO2 PWINO

20 Mar 2019 04:02

Frequency: 132.025

Phone: 641-472-4548

Other Area AWOS: KAWG - KOTM - KMPZ - KOOA

TAF AMD KOTM 192339Z 2000/2024 17006KT P6SM OVC060 FM200400 VRB05KT 5SM -RA SCT015 OVC025 FM200900 VRB06KT P6SM VCSH OVC010 FM201200 32006KT P6SM OVC010 FM201400 30008KT P6SM BKN025 FM202100 29013G21KT P6SM BKN035